createdAt,value
2019-04-07T00:04:36.317Z,32.40
2019-04-07T00:07:26.542Z,31.20
2019-04-07T00:10:15.534Z,26.57
2019-04-07T00:13:05.920Z,27.90
2019-04-07T00:15:54.731Z,34.10
2019-04-07T00:18:43.521Z,32.57
2019-04-07T00:21:51.345Z,26.23
2019-04-07T00:24:40.128Z,33.50
2019-04-07T00:27:28.924Z,30.60
2019-04-07T00:30:18.085Z,27.37
2019-04-07T00:33:08.242Z,28.00
2019-04-07T00:35:57.019Z,33.40
2019-04-07T00:38:46.129Z,29.87
2019-04-07T00:41:36.482Z,30.70
2019-04-07T00:44:26.852Z,41.73
2019-04-07T00:47:15.746Z,38.30
2019-04-07T00:53:33.502Z,29.30
2019-04-07T00:56:15.023Z,34.47
2019-04-07T00:59:04.309Z,33.37
2019-04-07T01:01:54.594Z,31.83
2019-04-07T01:04:44.874Z,34.77
2019-04-07T01:07:33.678Z,30.37
2019-04-07T01:10:22.469Z,26.57
2019-04-07T01:13:11.885Z,28.57
2019-04-07T01:16:01.777Z,33.57
2019-04-07T01:18:50.581Z,30.53
2019-04-07T01:21:41.086Z,27.97
2019-04-07T01:24:29.910Z,43.80
2019-04-07T01:27:19.184Z,35.00
2019-04-07T01:30:30.409Z,37.17
2019-04-07T01:33:20.771Z,36.37
2019-04-07T01:36:29.194Z,28.20
2019-04-07T01:39:19.458Z,27.30
2019-04-07T01:42:29.054Z,38.43
2019-04-07T01:45:36.984Z,27.10
2019-04-07T01:48:44.816Z,29.90
2019-04-07T01:51:52.985Z,31.50
2019-04-07T01:55:00.811Z,29.43
2019-04-07T01:57:42.232Z,28.67
2019-04-07T02:00:50.537Z,30.90
2019-04-07T02:03:58.503Z,30.63
2019-04-07T02:07:07.269Z,33.07
2019-04-07T02:10:16.293Z,36.10
2019-04-07T02:13:24.211Z,37.07
2019-04-07T02:16:32.031Z,39.83
2019-04-07T02:19:40.366Z,43.23
2019-04-07T02:28:47.272Z,33.60
2019-04-07T02:31:36.040Z,31.90
2019-04-07T02:34:45.575Z,39.60
2019-04-07T02:37:53.489Z,37.70
2019-04-07T02:43:56.888Z,42.20
2019-04-07T02:47:04.691Z,42.97
2019-04-07T02:50:12.534Z,49.80
2019-04-07T02:53:20.317Z,39.33
2019-04-07T02:56:29.259Z,42.80
2019-04-07T02:59:14.547Z,40.17
2019-04-07T03:02:03.247Z,41.58
2019-04-07T03:04:52.444Z,37.53
2019-04-07T03:08:01.538Z,40.73
2019-04-07T03:11:09.665Z,35.97
2019-04-07T03:14:17.851Z,32.30
2019-04-07T03:17:25.806Z,40.10
2019-04-07T03:23:44.043Z,37.47
2019-04-07T03:30:03.570Z,32.80
2019-04-07T03:33:15.338Z,28.27
2019-04-07T03:36:23.597Z,41.67
2019-04-07T03:39:30.591Z,45.17
2019-04-07T03:42:38.662Z,39.55
2019-04-07T03:45:46.692Z,44.60
2019-04-07T03:48:55.342Z,34.10
2019-04-07T03:55:13.418Z,34.53
2019-04-07T03:58:21.225Z,33.03
2019-04-07T04:01:30.046Z,35.27
2019-04-07T04:04:39.499Z,35.73
2019-04-07T04:10:58.094Z,39.33
2019-04-07T04:14:06.105Z,31.67
2019-04-07T04:16:54.906Z,33.37
2019-04-07T04:19:44.005Z,36.10
2019-04-07T04:22:34.191Z,44.13
2019-04-07T04:25:24.448Z,38.97
2019-04-07T04:28:14.324Z,34.57
2019-04-07T04:31:03.292Z,30.43
2019-04-07T04:33:54.437Z,27.32
2019-04-07T04:36:44.703Z,33.13
2019-04-07T04:39:35.491Z,33.90
2019-04-07T04:42:25.227Z,34.50
2019-04-07T04:45:34.928Z,35.57
2019-04-07T04:51:35.527Z,42.90
2019-04-07T04:54:21.984Z,50.47
2019-04-07T04:57:11.199Z,38.37
2019-04-07T04:59:54.044Z,32.70
2019-04-07T05:02:44.184Z,38.17
2019-04-07T05:05:33.431Z,36.60
2019-04-07T05:08:22.246Z,37.37
2019-04-07T05:11:11.024Z,47.47
2019-04-07T05:14:00.288Z,39.67
2019-04-07T05:16:50.439Z,37.93
2019-04-07T05:19:42.637Z,32.57
2019-04-07T05:22:29.891Z,32.93
2019-04-07T05:25:20.687Z,40.27
2019-04-07T05:28:11.325Z,36.03
2019-04-07T05:31:01.249Z,38.87
2019-04-07T05:33:50.043Z,29.77
2019-04-07T05:36:38.938Z,35.83
2019-04-07T05:39:29.343Z,33.30
2019-04-07T05:42:18.824Z,37.10
2019-04-07T05:45:10.015Z,40.67
2019-04-07T05:48:00.045Z,39.97
2019-04-07T05:50:50.454Z,44.67
2019-04-07T05:53:44.079Z,46.57
2019-04-07T05:56:31.578Z,45.83
2019-04-07T05:59:14.700Z,35.07
2019-04-07T06:02:04.221Z,36.37
2019-04-07T06:04:54.371Z,36.83
2019-04-07T06:07:43.736Z,41.40
2019-04-07T06:10:33.773Z,39.73
2019-04-07T06:13:22.571Z,31.77
2019-04-07T06:16:11.373Z,42.40
2019-04-07T06:19:01.792Z,41.67
2019-04-07T06:21:50.718Z,36.33
2019-04-07T06:24:39.503Z,33.03
2019-04-07T06:27:29.759Z,35.83
2019-04-07T06:33:28.544Z,31.47
2019-04-07T06:36:20.265Z,29.33
2019-04-07T06:39:09.519Z,40.10
2019-04-07T06:42:01.447Z,32.20
2019-04-07T06:44:52.213Z,38.27
2019-04-07T06:51:09.573Z,41.70
2019-04-07T06:54:21.622Z,34.10
2019-04-07T06:57:28.210Z,33.47
2019-04-07T07:00:11.612Z,36.20
2019-04-07T07:03:19.439Z,31.37
2019-04-07T07:12:39.124Z,29.90
2019-04-07T07:15:46.071Z,30.27
2019-04-07T07:24:29.841Z,45.53
2019-04-07T07:27:18.637Z,28.77
2019-04-07T07:30:07.816Z,30.60
2019-04-07T07:32:58.131Z,27.17
2019-04-07T07:35:49.258Z,23.03
2019-04-07T07:38:38.459Z,24.57
2019-04-07T07:41:29.007Z,20.87
2019-04-07T07:44:18.885Z,24.30
2019-04-07T07:47:07.948Z,23.00
2019-04-07T07:49:58.662Z,20.77
2019-04-07T07:52:51.277Z,25.47
2019-04-07T07:55:39.263Z,20.97
2019-04-07T07:58:31.504Z,22.55
2019-04-07T08:01:13.859Z,23.43
2019-04-07T08:04:02.011Z,20.77
2019-04-07T08:06:51.285Z,16.77
2019-04-07T08:09:42.026Z,20.13
2019-04-07T08:12:34.310Z,16.00
2019-04-07T08:15:25.524Z,26.77
2019-04-07T08:18:12.464Z,18.30
2019-04-07T08:21:03.294Z,19.67
2019-04-07T08:23:53.518Z,18.67
2019-04-07T08:26:43.720Z,16.40
2019-04-07T08:29:37.113Z,17.40
2019-04-07T08:32:27.021Z,15.63
2019-04-07T08:35:15.391Z,15.03
2019-04-07T08:38:05.765Z,17.47
2019-04-07T08:40:56.700Z,12.50
2019-04-07T08:43:46.756Z,18.73
2019-04-07T08:46:40.065Z,15.00
2019-04-07T08:49:26.081Z,12.20
2019-04-07T08:52:15.283Z,18.30
2019-04-07T08:55:06.080Z,19.30
2019-04-07T09:00:57.445Z,15.93
2019-04-07T09:03:46.256Z,12.57
2019-04-07T09:06:35.044Z,18.00
2019-04-07T09:09:32.625Z,19.10
2019-04-07T09:12:15.216Z,13.00
2019-04-07T09:15:25.972Z,17.10
2019-04-07T09:18:33.787Z,12.90
2019-04-07T09:21:42.814Z,18.20
2019-04-07T09:27:51.089Z,12.23
2019-04-07T09:31:02.162Z,13.20
2019-04-07T09:34:09.426Z,19.17
2019-04-07T09:40:16.494Z,14.67
2019-04-07T09:49:31.037Z,19.50
2019-04-07T09:52:39.583Z,17.43
2019-04-07T09:58:19.302Z,18.47
2019-04-07T10:01:28.795Z,17.90
2019-04-07T10:04:38.657Z,14.60
2019-04-07T10:07:46.842Z,17.57
2019-04-07T10:10:54.873Z,17.20
2019-04-07T10:14:03.384Z,13.33
2019-04-07T10:17:12.271Z,18.40
2019-04-07T10:20:22.337Z,19.10
2019-04-07T10:32:34.043Z,17.17
2019-04-07T10:35:41.809Z,14.37
2019-04-07T10:41:49.582Z,19.57
2019-04-07T10:47:57.822Z,16.27
2019-04-07T10:51:05.688Z,18.57
2019-04-07T10:59:51.312Z,21.30
2019-04-07T11:03:00.888Z,19.10
2019-04-07T11:09:07.988Z,16.47
2019-04-07T11:12:15.792Z,26.07
2019-04-07T11:15:25.933Z,17.80
2019-04-07T11:18:33.784Z,21.43
2019-04-07T11:21:41.611Z,29.10
2019-04-07T11:24:49.416Z,29.80
2019-04-07T11:27:57.250Z,20.57
2019-04-07T11:31:05.726Z,21.13
2019-04-07T11:33:54.549Z,19.20
2019-04-07T11:43:02.288Z,19.60
2019-04-07T11:46:10.868Z,25.60
2019-04-07T11:49:19.641Z,24.53
2019-04-07T11:55:37.576Z,21.17
2019-04-07T11:58:28.988Z,20.70
2019-04-07T12:01:31.107Z,21.40
2019-04-07T12:04:38.931Z,26.87
2019-04-07T12:11:02.204Z,23.27
2019-04-07T12:14:06.320Z,43.52
2019-04-07T12:17:15.029Z,24.50
2019-04-07T12:23:40.231Z,27.47
2019-04-07T12:26:48.122Z,29.57
2019-04-07T12:29:55.931Z,25.27
2019-04-07T12:35:40.513Z,23.20
2019-04-07T12:38:29.071Z,21.47
2019-04-07T12:44:33.239Z,23.40
2019-04-07T12:47:41.176Z,26.30
2019-04-07T12:50:50.315Z,29.53
2019-04-07T12:53:39.895Z,30.53
2019-04-07T12:56:31.693Z,24.13
2019-04-07T13:02:17.927Z,30.37
2019-04-07T13:11:47.012Z,20.03
2019-04-07T13:14:54.591Z,42.97
2019-04-07T13:18:06.113Z,29.57
2019-04-07T13:21:13.379Z,27.53
2019-04-07T13:24:30.314Z,23.17
2019-04-07T13:27:35.230Z,27.23
2019-04-07T13:33:37.160Z,22.30
2019-04-07T13:36:46.345Z,27.83
2019-04-07T13:39:54.521Z,29.13
2019-04-07T13:43:04.212Z,23.00
2019-04-07T13:46:18.871Z,24.50
2019-04-07T13:49:24.153Z,29.43
2019-04-07T13:55:19.874Z,27.87
2019-04-07T13:58:31.018Z,23.57
2019-04-07T14:01:37.262Z,26.17
2019-04-07T14:07:41.004Z,23.30
2019-04-07T14:10:57.995Z,23.93
2019-04-07T14:13:46.921Z,24.77
2019-04-07T14:16:54.731Z,25.63
2019-04-07T14:20:02.555Z,30.23
2019-04-07T14:32:02.393Z,20.70
2019-04-07T14:35:10.467Z,24.63
2019-04-07T14:38:18.952Z,21.00
2019-04-07T14:50:21.197Z,27.50
2019-04-07T14:53:30.270Z,26.07
2019-04-07T14:59:47.342Z,23.50
2019-04-07T15:02:36.504Z,30.60
2019-04-07T15:08:41.997Z,25.17
2019-04-07T15:14:32.841Z,37.37
2019-04-07T15:17:22.030Z,24.40
2019-04-07T15:20:14.376Z,26.10
2019-04-07T15:23:02.843Z,25.20
2019-04-07T15:25:53.012Z,23.43
2019-04-07T15:28:41.814Z,24.20
2019-04-07T15:31:30.901Z,20.50
2019-04-07T15:34:21.191Z,26.63
2019-04-07T15:37:10.245Z,24.20
2019-04-07T15:40:02.709Z,19.40
2019-04-07T15:42:51.273Z,20.60
2019-04-07T15:45:34.311Z,20.23
2019-04-07T15:48:25.830Z,23.90
2019-04-07T15:51:14.395Z,29.20
2019-04-07T15:54:04.184Z,22.27
2019-04-07T15:56:53.950Z,26.00
2019-04-07T15:59:43.830Z,29.33
2019-04-07T16:02:33.482Z,28.50
2019-04-07T16:05:23.145Z,22.70
2019-04-07T16:08:13.583Z,23.17
2019-04-07T16:11:02.526Z,29.73
2019-04-07T16:13:52.001Z,23.47
2019-04-07T16:16:42.622Z,29.97
2019-04-07T16:19:39.891Z,18.80
2019-04-07T16:22:22.885Z,20.57
2019-04-07T16:25:11.820Z,18.33
2019-04-07T16:28:00.681Z,20.90
2019-04-07T16:30:51.941Z,18.60
2019-04-07T16:33:40.987Z,22.97
2019-04-07T16:36:30.846Z,22.03
2019-04-07T16:39:21.000Z,18.53
2019-04-07T16:42:10.837Z,20.10
2019-04-07T16:44:53.827Z,24.17
2019-04-07T16:47:43.338Z,26.33
2019-04-07T16:50:33.326Z,17.67
2019-04-07T16:53:22.129Z,20.80
2019-04-07T16:56:11.326Z,20.63
2019-04-07T16:59:02.573Z,20.80
2019-04-07T17:01:52.881Z,17.67
2019-04-07T17:04:43.119Z,23.00
2019-04-07T17:07:33.933Z,20.40
2019-04-07T17:10:26.121Z,20.37
2019-04-07T17:13:20.119Z,30.20
2019-04-07T17:16:04.727Z,27.17
2019-04-07T17:18:56.230Z,25.80
2019-04-07T17:21:45.561Z,21.17
2019-04-07T17:24:34.577Z,48.63
2019-04-07T17:27:24.890Z,24.73
2019-04-07T17:30:35.936Z,22.60
2019-04-07T17:33:25.186Z,24.90
2019-04-07T17:36:17.624Z,27.30
2019-04-07T17:39:45.011Z,31.30
2019-04-07T17:42:33.951Z,28.13
2019-04-07T17:45:23.535Z,35.73
2019-04-07T17:48:38.576Z,31.23
2019-04-07T17:51:42.215Z,21.57
2019-04-07T17:54:52.501Z,41.60
2019-04-07T18:00:55.405Z,27.13
2019-04-07T18:04:03.769Z,25.50
2019-04-07T18:07:12.105Z,29.73
2019-04-07T18:10:22.547Z,25.40
2019-04-07T18:13:43.405Z,41.67
2019-04-07T18:19:48.655Z,27.70
2019-04-07T18:26:08.472Z,42.10
2019-04-07T18:29:15.399Z,32.40
2019-04-07T18:32:03.990Z,23.60
2019-04-07T18:34:52.856Z,41.20
2019-04-07T18:38:02.266Z,43.60
2019-04-07T18:41:11.150Z,37.50
2019-04-07T18:44:04.544Z,28.77
2019-04-07T18:47:08.200Z,28.27
2019-04-07T18:50:16.601Z,35.90
2019-04-07T18:53:27.580Z,29.85
2019-04-07T18:56:34.641Z,33.80
2019-04-07T18:59:44.220Z,31.93
2019-04-07T19:02:53.645Z,28.50
2019-04-07T19:09:11.145Z,30.87
2019-04-07T19:12:21.691Z,22.60
2019-04-07T19:15:29.731Z,21.67
2019-04-07T19:18:40.216Z,25.87
2019-04-07T19:21:48.433Z,28.47
2019-04-07T19:24:56.286Z,26.10
2019-04-07T19:28:05.032Z,20.27
2019-04-07T19:31:17.481Z,22.77
2019-04-07T19:34:23.677Z,25.80
2019-04-07T19:37:32.438Z,31.73
2019-04-07T19:40:23.534Z,35.70
2019-04-07T19:43:12.216Z,23.43
2019-04-07T19:46:19.068Z,27.17
2019-04-07T19:52:26.376Z,31.07
2019-04-07T19:55:34.617Z,26.00
2019-04-07T20:07:33.192Z,22.40
2019-04-07T20:10:40.978Z,22.97
2019-04-07T20:13:49.047Z,22.30
2019-04-07T20:16:57.769Z,22.20
2019-04-07T20:20:08.882Z,24.10
2019-04-07T20:23:17.334Z,25.50
2019-04-07T20:26:24.622Z,27.57
2019-04-07T20:29:34.111Z,23.87
2019-04-07T20:32:42.745Z,27.63
2019-04-07T20:39:00.480Z,24.30
2019-04-07T20:42:08.686Z,25.23
2019-04-07T20:45:14.291Z,26.50
2019-04-07T20:48:01.275Z,24.73
2019-04-07T20:54:09.735Z,25.90
2019-04-07T20:57:23.669Z,22.40
2019-04-07T21:00:28.545Z,20.47
2019-04-07T21:03:36.358Z,25.17
2019-04-07T21:09:39.656Z,22.87
2019-04-07T21:12:31.061Z,28.70
2019-04-07T21:18:38.961Z,26.40
2019-04-07T21:21:47.878Z,27.40
2019-04-07T21:24:55.827Z,22.50
2019-04-07T21:28:06.096Z,24.07
2019-04-07T21:31:15.969Z,25.27
2019-04-07T21:37:02.764Z,26.37
2019-04-07T21:40:10.573Z,23.27
2019-04-07T21:43:18.378Z,28.47
2019-04-07T21:46:02.530Z,29.70
2019-04-07T21:52:06.689Z,30.77
2019-04-07T21:58:26.635Z,37.77
2019-04-07T22:01:37.708Z,26.63
2019-04-07T22:04:44.119Z,41.00
2019-04-07T22:07:51.927Z,26.90
2019-04-07T22:10:41.536Z,23.43
2019-04-07T22:13:34.579Z,25.90
2019-04-07T22:16:23.934Z,25.73
2019-04-07T22:19:13.982Z,26.30
2019-04-07T22:22:02.755Z,35.00
2019-04-07T22:24:51.537Z,25.60
2019-04-07T22:27:41.061Z,30.77
2019-04-07T22:30:30.839Z,26.17
2019-04-07T22:33:22.876Z,25.83
2019-04-07T22:36:13.918Z,29.87
2019-04-07T22:39:02.428Z,23.07
2019-04-07T22:41:51.207Z,25.00
2019-04-07T22:44:33.569Z,28.63
2019-04-07T22:47:23.323Z,23.42
2019-04-07T22:50:12.975Z,32.93
2019-04-07T22:53:01.794Z,35.70
2019-04-07T22:55:50.628Z,32.00
2019-04-07T22:58:40.179Z,30.57
2019-04-07T23:01:29.895Z,30.27
2019-04-07T23:04:18.673Z,35.00
2019-04-07T23:07:08.230Z,30.10
2019-04-07T23:09:58.035Z,27.27
2019-04-07T23:12:47.824Z,33.23
2019-04-07T23:15:43.938Z,42.70
2019-04-07T23:18:27.839Z,31.00
2019-04-07T23:21:17.264Z,35.33
2019-04-07T23:24:06.113Z,29.90
2019-04-07T23:26:54.893Z,36.20
2019-04-07T23:29:44.359Z,32.93
2019-04-07T23:32:34.295Z,27.60
2019-04-07T23:35:23.081Z,29.40
2019-04-07T23:38:11.993Z,32.10
2019-04-07T23:41:01.181Z,29.47
2019-04-07T23:43:51.326Z,29.90
2019-04-07T23:46:33.770Z,29.40
2019-04-07T23:49:22.612Z,37.53
2019-04-07T23:52:11.371Z,34.20
2019-04-07T23:55:00.179Z,27.97
2019-04-07T23:57:48.944Z,35.30
